Carlyle, IL

10:44 AM CDT on September 01, 2014 (GMT -0500)
Courthouse | Change Station
CLOSE
Current Station
Personal Weather Station
Location: Carlyle, IL
Elevation: 472 ft
Nearby Weather Stations

Elev 472 ft 38.61 °N, 89.37 °W | Updated 57 seconds ago

Partly Cloudy
Partly Cloudy
77.4 °F
Feels Like 79 °F
N
13.0
Wind Variable Wind from SSE
Gusts 25.0 mph

Today
High -- | Low -- °F
--% Chance of Precip.
Yesterday
High -- | Low -- °F
Precip. -- in
6:26 AM 7:27 PM
Waxing Crescent, 42% visible
Pressure 29.85 in
Visibility 10.0 miles
Clouds Scattered Clouds 1800 ft
Scattered Clouds 2400 ft
Scattered Clouds 9500 ft
Heat Index 79 °F
Dew Point 73 °F
Humidity 85%
Rainfall 0.00 in
Snow Depth Not available.
UV 5 out of 12
Pollen 10.80 out of 12
Ozone Good
PM2.5 Good
Flu Activity Not available.
METAR KENL 011535Z AUTO 17015G18KT 10SM SCT018 SCT024 SCT095 25/21 A2985 RMK AO2

More Conditions Fewer Conditions

Pressure 29.85 in
Visibility 10.0 miles
Clouds Scattered Clouds 1800 ft
Scattered Clouds 2400 ft
Scattered Clouds 9500 ft
Heat Index 79 °F
Dew Point 73 °F
Humidity 85%
Rainfall 0.00 in
Snow Depth Not available.
UV 5 out of 12
Pollen 10.80 out of 12
Ozone Good
PM2.5 Good
Flu Activity Not available.
METAR KENL 011535Z AUTO 17015G18KT 10SM SCT018 SCT024 SCT095 25/21 A2985 RMK AO2

More Conditions Fewer Conditions

10-Day Weather Forecast

Almanac

Astronomy

Sep. 01, 2014 Rise Set
Actual Time 6:26 AM CDT 7:27 PM CDT
Civil Twilight 5:59 AM CDT 7:54 PM CDT
Nautical Twilight 5:27 AM CDT 8:26 PM CDT
Astronomical Twilight 4:53 AM CDT 9:00 PM CDT
Moon 1:07 PM CDT 11:33 PM CDT
Length of Visible Light 13h 55m
Length of Day
13h 00m
Tomorrow will be 2m 25s shorter.
Waxing Crescent, 42% of the Moon is Illuminated
Today
Waxing Crescent
Sep 2
First Quarter
Sep 8
Full
Sep 15
Last Quarter
Sep 24
New

Today's Extremes

State Highs State Lows

Community

WunderPhotos

Upload Photos

1,749,276 photos uploaded!

Nearby

Air Quality

  Air Quality AQ Index Pollutant
Yesterday Good
OZONE
Yesterday Good
PM2.5
Current Good
PM2.5
Current Good
OZONE
Monday Moderate
PM2.5
Monday Good
OZONE
Tuesday Moderate
PM2.5
Tuesday Good
OZONE

Snow Depth

Station Depth Elevation
No new snow has been reported.

Earthquake Activity

City Distance Mag. Time & Date
No recent earthquake activity has been reported nearby.
Minimum magnitude displayed is 2.5.

Coastal Water Temperatures

Place Temperature
No Stations Reporting

Nearby Weather Stations